sensor_id;sensor_type;location;lat;lon;timestamp;pressure;altitude;pressure_sealevel;temperature;humidity
21240;BME280;10778;48.962;9.018;2023-07-30T00:02:25;98601.94;;;17.48;100.00
21240;BME280;10778;48.962;9.018;2023-07-30T00:04:51;98605.31;;;17.35;100.00
21240;BME280;10778;48.962;9.018;2023-07-30T00:07:17;98612.31;;;17.43;100.00
21240;BME280;10778;48.962;9.018;2023-07-30T00:09:43;98603.28;;;17.38;100.00
21240;BME280;10778;48.962;9.018;2023-07-30T00:12:09;98608.22;;;17.41;100.00
21240;BME280;10778;48.962;9.018;2023-07-30T00:14:35;98603.47;;;17.36;100.00
21240;BME280;10778;48.962;9.018;2023-07-30T00:17:02;98605.75;;;17.39;100.00
21240;BME280;10778;48.962;9.018;2023-07-30T00:19:28;98609.19;;;17.33;100.00
21240;BME280;10778;48.962;9.018;2023-07-30T00:21:54;98608.75;;;17.29;100.00
21240;BME280;10778;48.962;9.018;2023-07-30T00:24:20;98623.25;;;17.27;100.00
21240;BME280;10778;48.962;9.018;2023-07-30T00:26:46;98611.00;;;17.32;100.00
21240;BME280;10778;48.962;9.018;2023-07-30T00:29:15;98613.66;;;17.32;100.00
21240;BME280;10778;48.962;9.018;2023-07-30T00:31:41;98609.91;;;17.20;100.00
21240;BME280;10778;48.962;9.018;2023-07-30T00:34:07;98622.50;;;17.11;100.00
21240;BME280;10778;48.962;9.018;2023-07-30T00:36:33;98626.78;;;17.05;100.00
21240;BME280;10778;48.962;9.018;2023-07-30T00:38:59;98624.94;;;17.06;100.00
21240;BME280;10778;48.962;9.018;2023-07-30T00:41:25;98634.31;;;17.02;100.00
21240;BME280;10778;48.962;9.018;2023-07-30T00:43:51;98641.66;;;17.00;100.00
21240;BME280;10778;48.962;9.018;2023-07-30T00:46:17;98643.47;;;16.99;100.00
21240;BME280;10778;48.962;9.018;2023-07-30T00:48:43;98644.09;;;17.01;100.00
21240;BME280;10778;48.962;9.018;2023-07-30T00:51:13;98649.31;;;16.95;100.00
21240;BME280;10778;48.962;9.018;2023-07-30T00:53:39;98653.06;;;16.78;100.00
21240;BME280;10778;48.962;9.018;2023-07-30T00:56:05;98659.72;;;16.89;100.00
21240;BME280;10778;48.962;9.018;2023-07-30T00:58:32;98657.88;;;16.90;100.00
21240;BME280;10778;48.962;9.018;2023-07-30T01:00:59;98659.25;;;16.86;100.00
21240;BME280;10778;48.962;9.018;2023-07-30T01:03:25;98667.59;;;16.83;100.00
21240;BME280;10778;48.962;9.018;2023-07-30T01:05:51;98668.25;;;16.85;100.00
21240;BME280;10778;48.962;9.018;2023-07-30T01:08:17;98668.56;;;16.75;100.00
21240;BME280;10778;48.962;9.018;2023-07-30T01:10:43;98680.13;;;16.67;100.00
21240;BME280;10778;48.962;9.018;2023-07-30T01:13:09;98675.47;;;16.69;100.00
21240;BME280;10778;48.962;9.018;2023-07-30T01:15:37;98672.75;;;16.62;100.00
21240;BME280;10778;48.962;9.018;2023-07-30T01:18:03;98671.44;;;16.58;100.00
21240;BME280;10778;48.962;9.018;2023-07-30T01:20:30;98678.59;;;16.58;100.00
21240;BME280;10778;48.962;9.018;2023-07-30T01:22:58;98669.22;;;16.40;100.00
21240;BME280;10778;48.962;9.018;2023-07-30T01:25:26;98668.66;;;16.45;100.00
21240;BME280;10778;48.962;9.018;2023-07-30T01:27:55;98651.53;;;16.47;100.00
21240;BME280;10778;48.962;9.018;2023-07-30T01:30:30;98661.59;;;16.52;100.00
21240;BME280;10778;48.962;9.018;2023-07-30T01:32:58;98658.75;;;16.54;100.00
21240;BME280;10778;48.962;9.018;2023-07-30T01:35:28;98662.66;;;16.58;100.00
21240;BME280;10778;48.962;9.018;2023-07-30T01:37:54;98662.28;;;16.61;100.00
21240;BME280;10778;48.962;9.018;2023-07-30T01:40:21;98674.72;;;16.60;100.00
21240;BME280;10778;48.962;9.018;2023-07-30T01:42:51;98676.75;;;16.58;100.00
21240;BME280;10778;48.962;9.018;2023-07-30T01:45:17;98682.44;;;16.55;100.00
21240;BME280;10778;48.962;9.018;2023-07-30T01:47:43;98679.63;;;16.57;100.00
21240;BME280;10778;48.962;9.018;2023-07-30T01:50:09;98681.72;;;16.46;100.00
21240;BME280;10778;48.962;9.018;2023-07-30T01:52:36;98682.66;;;16.39;100.00
21240;BME280;10778;48.962;9.018;2023-07-30T01:55:02;98682.03;;;16.37;100.00
21240;BME280;10778;48.962;9.018;2023-07-30T01:57:28;98684.69;;;16.37;100.00
21240;BME280;10778;48.962;9.018;2023-07-30T01:59:54;98678.63;;;16.43;100.00
21240;BME280;10778;48.962;9.018;2023-07-30T02:02:20;98677.69;;;16.50;100.00
21240;BME280;10778;48.962;9.018;2023-07-30T02:04:46;98671.94;;;16.47;100.00
21240;BME280;10778;48.962;9.018;2023-07-30T02:07:12;98674.59;;;16.47;100.00
21240;BME280;10778;48.962;9.018;2023-07-30T02:09:38;98674.78;;;16.45;100.00
21240;BME280;10778;48.962;9.018;2023-07-30T02:12:04;98665.16;;;16.44;100.00
21240;BME280;10778;48.962;9.018;2023-07-30T02:14:30;98676.16;;;16.41;100.00
21240;BME280;10778;48.962;9.018;2023-07-30T02:17:00;98678.63;;;16.43;100.00
21240;BME280;10778;48.962;9.018;2023-07-30T02:19:26;98662.91;;;16.41;100.00
21240;BME280;10778;48.962;9.018;2023-07-30T02:21:52;98665.16;;;16.44;100.00
21240;BME280;10778;48.962;9.018;2023-07-30T02:24:18;98673.53;;;16.41;100.00
21240;BME280;10778;48.962;9.018;2023-07-30T02:26:44;98668.59;;;16.38;100.00
21240;BME280;10778;48.962;9.018;2023-07-30T02:29:10;98668.00;;;16.43;100.00
21240;BME280;10778;48.962;9.018;2023-07-30T02:31:36;98668.75;;;16.37;100.00
21240;BME280;10778;48.962;9.018;2023-07-30T02:34:02;98658.50;;;16.33;100.00
21240;BME280;10778;48.962;9.018;2023-07-30T02:36:28;98666.09;;;16.37;100.00
21240;BME280;10778;48.962;9.018;2023-07-30T02:38:54;98668.97;;;16.35;100.00
21240;BME280;10778;48.962;9.018;2023-07-30T02:41:20;98671.16;;;16.31;100.00
21240;BME280;10778;48.962;9.018;2023-07-30T02:43:46;98680.69;;;16.26;100.00
21240;BME280;10778;48.962;9.018;2023-07-30T02:46:12;98681.94;;;16.30;100.00
21240;BME280;10778;48.962;9.018;2023-07-30T02:48:38;98683.16;;;16.27;100.00
21240;BME280;10778;48.962;9.018;2023-07-30T02:51:04;98690.28;;;16.27;100.00
21240;BME280;10778;48.962;9.018;2023-07-30T02:53:30;98694.31;;;16.23;100.00
21240;BME280;10778;48.962;9.018;2023-07-30T02:55:56;98698.88;;;16.29;100.00
21240;BME280;10778;48.962;9.018;2023-07-30T02:58:22;98694.41;;;16.29;100.00
21240;BME280;10778;48.962;9.018;2023-07-30T03:00:47;98690.75;;;16.30;100.00
21240;BME280;10778;48.962;9.018;2023-07-30T03:03:14;98695.50;;;16.35;100.00
21240;BME280;10778;48.962;9.018;2023-07-30T03:05:43;98691.00;;;16.35;100.00
21240;BME280;10778;48.962;9.018;2023-07-30T03:08:09;98694.13;;;16.39;100.00
21240;BME280;10778;48.962;9.018;2023-07-30T03:10:38;98690.84;;;16.37;100.00
21240;BME280;10778;48.962;9.018;2023-07-30T03:13:04;98686.06;;;16.32;100.00
21240;BME280;10778;48.962;9.018;2023-07-30T03:15:30;98681.50;;;16.26;100.00
21240;BME280;10778;48.962;9.018;2023-07-30T03:17:56;98691.47;;;16.24;100.00
21240;BME280;10778;48.962;9.018;2023-07-30T03:20:22;98682.97;;;16.29;100.00
21240;BME280;10778;48.962;9.018;2023-07-30T03:22:48;98681.78;;;16.31;100.00
21240;BME280;10778;48.962;9.018;2023-07-30T03:25:14;98681.56;;;16.33;100.00
21240;BME280;10778;48.962;9.018;2023-07-30T03:27:40;98679.19;;;16.38;100.00
21240;BME280;10778;48.962;9.018;2023-07-30T03:30:06;98687.59;;;16.42;100.00
21240;BME280;10778;48.962;9.018;2023-07-30T03:32:32;98688.44;;;16.42;100.00
21240;BME280;10778;48.962;9.018;2023-07-30T03:34:58;98688.06;;;16.45;100.00
21240;BME280;10778;48.962;9.018;2023-07-30T03:37:24;98690.84;;;16.37;100.00
21240;BME280;10778;48.962;9.018;2023-07-30T03:39:50;98692.66;;;16.37;100.00
21240;BME280;10778;48.962;9.018;2023-07-30T03:42:16;98698.16;;;16.35;100.00
21240;BME280;10778;48.962;9.018;2023-07-30T03:44:42;98705.94;;;16.37;100.00
21240;BME280;10778;48.962;9.018;2023-07-30T03:47:08;98701.88;;;16.41;100.00
21240;BME280;10778;48.962;9.018;2023-07-30T03:49:34;98707.19;;;16.41;100.00
21240;BME280;10778;48.962;9.018;2023-07-30T03:52:00;98710.06;;;16.39;100.00
21240;BME280;10778;48.962;9.018;2023-07-30T03:54:26;98714.34;;;16.40;100.00
21240;BME280;10778;48.962;9.018;2023-07-30T03:56:53;98726.06;;;16.46;100.00
21240;BME280;10778;48.962;9.018;2023-07-30T03:59:19;98723.59;;;16.44;100.00
21240;BME280;10778;48.962;9.018;2023-07-30T04:01:45;98727.06;;;16.45;100.00
21240;BME280;10778;48.962;9.018;2023-07-30T04:04:11;98732.00;;;16.48;100.00
21240;BME280;10778;48.962;9.018;2023-07-30T04:06:37;98731.63;;;16.51;100.00
21240;BME280;10778;48.962;9.018;2023-07-30T04:09:03;98732.91;;;16.55;100.00
21240;BME280;10778;48.962;9.018;2023-07-30T04:11:29;98722.38;;;16.62;100.00
21240;BME280;10778;48.962;9.018;2023-07-30T04:13:57;98720.97;;;16.66;100.00
21240;BME280;10778;48.962;9.018;2023-07-30T04:16:22;98715.31;;;16.69;100.00
21240;BME280;10778;48.962;9.018;2023-07-30T04:18:48;98727.94;;;16.67;100.00
21240;BME280;10778;48.962;9.018;2023-07-30T04:21:14;98725.09;;;16.69;100.00
21240;BME280;10778;48.962;9.018;2023-07-30T04:23:41;98726.56;;;16.71;100.00
21240;BME280;10778;48.962;9.018;2023-07-30T04:26:07;98725.09;;;16.69;100.00
21240;BME280;10778;48.962;9.018;2023-07-30T04:28:33;98727.28;;;16.65;100.00
21240;BME280;10778;48.962;9.018;2023-07-30T04:30:59;98725.72;;;16.71;100.00
21240;BME280;10778;48.962;9.018;2023-07-30T04:33:25;98721.50;;;16.76;100.00
21240;BME280;10778;48.962;9.018;2023-07-30T04:35:52;98738.25;;;16.77;100.00
21240;BME280;10778;48.962;9.018;2023-07-30T04:38:18;98733.09;;;16.90;100.00
21240;BME280;10778;48.962;9.018;2023-07-30T04:40:44;98745.28;;;16.85;100.00
21240;BME280;10778;48.962;9.018;2023-07-30T04:43:10;98746.13;;;16.85;100.00
21240;BME280;10778;48.962;9.018;2023-07-30T04:45:37;98742.53;;;16.93;100.00
21240;BME280;10778;48.962;9.018;2023-07-30T04:48:03;98740.81;;;16.85;100.00
21240;BME280;10778;48.962;9.018;2023-07-30T04:50:29;98738.63;;;16.89;100.00
21240;BME280;10778;48.962;9.018;2023-07-30T04:52:55;98758.66;;;16.91;100.00
21240;BME280;10778;48.962;9.018;2023-07-30T04:55:21;98761.91;;;16.87;100.00
21240;BME280;10778;48.962;9.018;2023-07-30T04:57:47;98768.31;;;16.77;100.00
21240;BME280;10778;48.962;9.018;2023-07-30T05:00:13;98762.38;;;16.75;100.00
21240;BME280;10778;48.962;9.018;2023-07-30T05:02:40;98767.03;;;16.73;100.00
21240;BME280;10778;48.962;9.018;2023-07-30T05:05:06;98769.06;;;16.71;100.00
21240;BME280;10778;48.962;9.018;2023-07-30T05:07:32;98768.06;;;16.72;100.00
21240;BME280;10778;48.962;9.018;2023-07-30T05:09:58;98772.06;;;16.68;100.00
21240;BME280;10778;48.962;9.018;2023-07-30T05:12:24;98774.19;;;16.73;100.00
21240;BME280;10778;48.962;9.018;2023-07-30T05:14:50;98769.41;;;16.68;100.00
21240;BME280;10778;48.962;9.018;2023-07-30T05:17:15;98771.44;;;16.66;100.00
21240;BME280;10778;48.962;9.018;2023-07-30T05:19:41;98769.63;;;16.67;100.00
21240;BME280;10778;48.962;9.018;2023-07-30T05:22:07;98778.22;;;16.69;100.00
21240;BME280;10778;48.962;9.018;2023-07-30T05:24:33;98772.03;;;16.61;100.00
21240;BME280;10778;48.962;9.018;2023-07-30T05:26:59;98767.34;;;16.63;100.00
21240;BME280;10778;48.962;9.018;2023-07-30T05:29:25;98769.88;;;16.72;100.00
21240;BME280;10778;48.962;9.018;2023-07-30T05:31:51;98756.41;;;16.73;100.00
21240;BME280;10778;48.962;9.018;2023-07-30T05:34:17;98759.03;;;16.88;100.00
21240;BME280;10778;48.962;9.018;2023-07-30T05:36:43;98757.56;;;16.86;100.00
21240;BME280;10778;48.962;9.018;2023-07-30T05:39:09;98754.66;;;16.81;100.00
21240;BME280;10778;48.962;9.018;2023-07-30T05:41:35;98761.19;;;16.78;100.00
21240;BME280;10778;48.962;9.018;2023-07-30T05:44:01;98752.66;;;16.68;100.00
21240;BME280;10778;48.962;9.018;2023-07-30T05:46:27;98748.25;;;16.75;100.00
21240;BME280;10778;48.962;9.018;2023-07-30T05:48:53;98762.00;;;16.78;100.00
21240;BME280;10778;48.962;9.018;2023-07-30T05:51:19;98760.91;;;16.73;100.00
21240;BME280;10778;48.962;9.018;2023-07-30T05:53:45;98751.38;;;16.78;100.00
21240;BME280;10778;48.962;9.018;2023-07-30T05:56:11;98754.50;;;16.67;100.00
21240;BME280;10778;48.962;9.018;2023-07-30T05:58:39;98757.50;;;16.79;100.00
21240;BME280;10778;48.962;9.018;2023-07-30T06:01:05;98755.56;;;16.88;100.00
21240;BME280;10778;48.962;9.018;2023-07-30T06:03:31;98760.50;;;16.91;100.00
21240;BME280;10778;48.962;9.018;2023-07-30T06:05:57;98751.41;;;17.00;100.00
21240;BME280;10778;48.962;9.018;2023-07-30T06:08:23;98746.16;;;17.07;100.00
21240;BME280;10778;48.962;9.018;2023-07-30T06:10:49;98758.06;;;17.11;100.00
21240;BME280;10778;48.962;9.018;2023-07-30T06:13:15;98753.41;;;17.13;100.00
21240;BME280;10778;48.962;9.018;2023-07-30T06:15:41;98776.19;;;17.23;100.00
21240;BME280;10778;48.962;9.018;2023-07-30T06:18:07;98770.59;;;17.61;100.00
21240;BME280;10778;48.962;9.018;2023-07-30T06:20:33;98763.00;;;17.86;100.00
21240;BME280;10778;48.962;9.018;2023-07-30T06:22:59;98773.81;;;18.42;100.00
21240;BME280;10778;48.962;9.018;2023-07-30T06:25:25;98768.94;;;18.45;100.00
21240;BME280;10778;48.962;9.018;2023-07-30T06:27:51;98776.84;;;18.32;100.00
21240;BME280;10778;48.962;9.018;2023-07-30T06:30:17;98774.34;;;18.24;100.00
21240;BME280;10778;48.962;9.018;2023-07-30T06:32:43;98767.25;;;18.86;100.00
21240;BME280;10778;48.962;9.018;2023-07-30T06:35:09;98772.38;;;18.88;100.00
21240;BME280;10778;48.962;9.018;2023-07-30T06:37:35;98770.22;;;19.25;100.00
21240;BME280;10778;48.962;9.018;2023-07-30T06:40:01;98774.78;;;19.65;100.00
21240;BME280;10778;48.962;9.018;2023-07-30T06:42:31;98774.16;;;19.76;100.00
21240;BME280;10778;48.962;9.018;2023-07-30T06:44:58;98768.41;;;20.00;100.00
21240;BME280;10778;48.962;9.018;2023-07-30T06:47:24;98780.13;;;20.12;100.00
21240;BME280;10778;48.962;9.018;2023-07-30T06:49:49;98774.81;;;19.92;100.00
21240;BME280;10778;48.962;9.018;2023-07-30T06:52:15;98781.56;;;19.68;100.00
21240;BME280;10778;48.962;9.018;2023-07-30T06:54:41;98786.22;;;19.32;100.00
21240;BME280;10778;48.962;9.018;2023-07-30T06:57:07;98797.28;;;19.22;100.00
21240;BME280;10778;48.962;9.018;2023-07-30T06:59:33;98802.78;;;19.00;100.00
21240;BME280;10778;48.962;9.018;2023-07-30T07:01:59;98809.94;;;19.00;100.00
21240;BME280;10778;48.962;9.018;2023-07-30T07:04:25;98818.81;;;18.65;100.00
21240;BME280;10778;48.962;9.018;2023-07-30T07:06:51;98820.28;;;18.74;100.00
21240;BME280;10778;48.962;9.018;2023-07-30T07:09:17;98819.22;;;18.62;100.00
21240;BME280;10778;48.962;9.018;2023-07-30T07:11:43;98815.63;;;18.48;100.00
21240;BME280;10778;48.962;9.018;2023-07-30T07:14:09;98823.00;;;18.46;100.00
21240;BME280;10778;48.962;9.018;2023-07-30T07:16:36;98826.69;;;18.45;100.00
21240;BME280;10778;48.962;9.018;2023-07-30T07:19:02;98824.88;;;18.45;100.00
21240;BME280;10778;48.962;9.018;2023-07-30T07:21:28;98815.19;;;18.38;100.00
21240;BME280;10778;48.962;9.018;2023-07-30T07:23:54;98820.28;;;18.32;100.00
21240;BME280;10778;48.962;9.018;2023-07-30T07:26:21;98828.19;;;18.19;100.00
21240;BME280;10778;48.962;9.018;2023-07-30T07:28:47;98830.13;;;18.03;100.00
21240;BME280;10778;48.962;9.018;2023-07-30T07:31:13;98840.44;;;18.13;100.00
21240;BME280;10778;48.962;9.018;2023-07-30T07:33:39;98846.88;;;18.26;100.00
21240;BME280;10778;48.962;9.018;2023-07-30T07:36:07;98857.03;;;17.94;100.00
21240;BME280;10778;48.962;9.018;2023-07-30T07:38:34;98862.19;;;17.73;100.00
21240;BME280;10778;48.962;9.018;2023-07-30T07:41:00;98853.06;;;17.39;100.00
21240;BME280;10778;48.962;9.018;2023-07-30T07:43:27;98854.44;;;17.35;100.00
21240;BME280;10778;48.962;9.018;2023-07-30T07:45:53;98854.06;;;17.38;100.00
21240;BME280;10778;48.962;9.018;2023-07-30T07:48:19;98855.53;;;17.41;100.00
21240;BME280;10778;48.962;9.018;2023-07-30T07:50:45;98858.97;;;17.56;100.00
21240;BME280;10778;48.962;9.018;2023-07-30T07:53:11;98851.34;;;17.53;100.00
21240;BME280;10778;48.962;9.018;2023-07-30T07:55:37;98858.06;;;17.71;100.00
21240;BME280;10778;48.962;9.018;2023-07-30T07:58:03;98852.56;;;17.72;100.00
21240;BME280;10778;48.962;9.018;2023-07-30T08:00:29;98854.25;;;17.80;100.00
21240;BME280;10778;48.962;9.018;2023-07-30T08:02:55;98843.34;;;17.97;100.00
21240;BME280;10778;48.962;9.018;2023-07-30T08:05:21;98848.06;;;18.23;100.00
21240;BME280;10778;48.962;9.018;2023-07-30T08:07:47;98840.56;;;18.69;100.00
21240;BME280;10778;48.962;9.018;2023-07-30T08:10:13;98846.97;;;18.81;100.00
21240;BME280;10778;48.962;9.018;2023-07-30T08:12:39;98847.84;;;18.88;100.00
21240;BME280;10778;48.962;9.018;2023-07-30T08:15:05;98841.84;;;18.80;100.00
21240;BME280;10778;48.962;9.018;2023-07-30T08:17:32;98843.84;;;19.13;100.00
21240;BME280;10778;48.962;9.018;2023-07-30T08:19:58;98850.41;;;19.10;100.00
21240;BME280;10778;48.962;9.018;2023-07-30T08:22:24;98852.53;;;18.86;100.00
21240;BME280;10778;48.962;9.018;2023-07-30T08:24:50;98848.16;;;19.14;100.00
21240;BME280;10778;48.962;9.018;2023-07-30T08:27:15;98840.22;;;19.27;100.00
21240;BME280;10778;48.962;9.018;2023-07-30T08:29:41;98836.66;;;19.13;100.00
21240;BME280;10778;48.962;9.018;2023-07-30T08:32:07;98840.03;;;19.42;100.00
21240;BME280;10778;48.962;9.018;2023-07-30T08:34:33;98836.97;;;19.52;100.00
21240;BME280;10778;48.962;9.018;2023-07-30T08:36:59;98837.38;;;19.49;100.00
21240;BME280;10778;48.962;9.018;2023-07-30T08:39:25;98830.63;;;19.60;100.00
21240;BME280;10778;48.962;9.018;2023-07-30T08:41:51;98817.44;;;19.31;100.00
21240;BME280;10778;48.962;9.018;2023-07-30T08:44:17;98821.75;;;19.39;100.00
21240;BME280;10778;48.962;9.018;2023-07-30T08:46:44;98821.13;;;19.30;100.00
21240;BME280;10778;48.962;9.018;2023-07-30T08:49:10;98836.38;;;19.84;100.00
21240;BME280;10778;48.962;9.018;2023-07-30T08:51:36;98828.81;;;20.14;100.00
21240;BME280;10778;48.962;9.018;2023-07-30T08:54:05;98831.84;;;20.31;100.00
21240;BME280;10778;48.962;9.018;2023-07-30T08:56:32;98835.34;;;20.39;100.00
21240;BME280;10778;48.962;9.018;2023-07-30T08:58:59;98842.59;;;20.97;100.00
21240;BME280;10778;48.962;9.018;2023-07-30T09:01:30;98833.06;;;20.42;98.76
21240;BME280;10778;48.962;9.018;2023-07-30T09:04:00;98845.03;;;19.86;99.40
21240;BME280;10778;48.962;9.018;2023-07-30T09:06:26;98841.50;;;19.65;100.00
21240;BME280;10778;48.962;9.018;2023-07-30T09:08:53;98840.47;;;19.86;99.85
21240;BME280;10778;48.962;9.018;2023-07-30T09:11:19;98849.72;;;19.77;100.00
21240;BME280;10778;48.962;9.018;2023-07-30T09:13:46;98858.13;;;19.67;98.74
21240;BME280;10778;48.962;9.018;2023-07-30T09:16:13;98857.34;;;19.94;98.03
21240;BME280;10778;48.962;9.018;2023-07-30T09:18:44;98848.59;;;20.86;96.26
21240;BME280;10778;48.962;9.018;2023-07-30T09:21:11;98855.44;;;20.48;98.98
21240;BME280;10778;48.962;9.018;2023-07-30T09:23:41;98864.09;;;19.63;96.77
21240;BME280;10778;48.962;9.018;2023-07-30T09:26:08;98862.00;;;19.44;98.17
21240;BME280;10778;48.962;9.018;2023-07-30T09:28:34;98865.88;;;19.42;96.00
21240;BME280;10778;48.962;9.018;2023-07-30T09:31:05;98862.25;;;19.76;92.72
21240;BME280;10778;48.962;9.018;2023-07-30T09:33:32;98861.69;;;19.95;92.29
21240;BME280;10778;48.962;9.018;2023-07-30T09:36:02;98868.88;;;20.14;90.13
21240;BME280;10778;48.962;9.018;2023-07-30T09:38:29;98860.78;;;20.55;87.72
21240;BME280;10778;48.962;9.018;2023-07-30T09:41:02;98864.94;;;20.37;85.49
21240;BME280;10778;48.962;9.018;2023-07-30T09:43:29;98857.09;;;20.49;82.94
21240;BME280;10778;48.962;9.018;2023-07-30T09:46:01;98870.69;;;20.27;84.95
21240;BME280;10778;48.962;9.018;2023-07-30T09:48:32;98875.00;;;20.15;88.90
21240;BME280;10778;48.962;9.018;2023-07-30T09:51:00;98873.78;;;20.38;84.96
21240;BME280;10778;48.962;9.018;2023-07-30T09:53:30;98887.34;;;20.29;80.74
21240;BME280;10778;48.962;9.018;2023-07-30T09:55:56;98882.16;;;20.55;78.12
21240;BME280;10778;48.962;9.018;2023-07-30T09:58:22;98880.72;;;20.59;77.97
21240;BME280;10778;48.962;9.018;2023-07-30T10:00:49;98887.53;;;20.48;80.76
21240;BME280;10778;48.962;9.018;2023-07-30T10:03:15;98902.75;;;20.41;80.02
21240;BME280;10778;48.962;9.018;2023-07-30T10:05:44;98895.94;;;19.91;81.43
21240;BME280;10778;48.962;9.018;2023-07-30T10:08:19;98899.66;;;20.10;81.05
21240;BME280;10778;48.962;9.018;2023-07-30T10:10:45;98897.00;;;20.10;79.28
21240;BME280;10778;48.962;9.018;2023-07-30T10:13:13;98891.84;;;20.36;80.75
21240;BME280;10778;48.962;9.018;2023-07-30T10:15:40;98902.94;;;20.59;79.08
21240;BME280;10778;48.962;9.018;2023-07-30T10:18:06;98894.84;;;20.80;78.22
21240;BME280;10778;48.962;9.018;2023-07-30T10:20:32;98889.28;;;21.01;76.09
21240;BME280;10778;48.962;9.018;2023-07-30T10:22:59;98889.75;;;21.30;75.10
21240;BME280;10778;48.962;9.018;2023-07-30T10:25:42;98883.88;;;21.15;77.01
21240;BME280;10778;48.962;9.018;2023-07-30T10:28:26;98879.25;;;21.36;76.44
21240;BME280;10778;48.962;9.018;2023-07-30T10:31:00;98870.41;;;20.69;74.36
21240;BME280;10778;48.962;9.018;2023-07-30T10:33:46;98879.84;;;20.85;74.56
21240;BME280;10778;48.962;9.018;2023-07-30T10:36:12;98880.66;;;21.38;72.92
21240;BME280;10778;48.962;9.018;2023-07-30T10:38:39;98887.00;;;21.44;74.04
21240;BME280;10778;48.962;9.018;2023-07-30T10:41:12;98891.13;;;21.01;73.04
21240;BME280;10778;48.962;9.018;2023-07-30T10:43:46;98900.63;;;20.70;76.32
21240;BME280;10778;48.962;9.018;2023-07-30T10:46:15;98907.06;;;20.22;77.06
21240;BME280;10778;48.962;9.018;2023-07-30T10:48:43;98920.03;;;20.04;77.13
21240;BME280;10778;48.962;9.018;2023-07-30T10:51:18;98917.75;;;19.95;78.12
21240;BME280;10778;48.962;9.018;2023-07-30T10:53:45;98927.72;;;19.66;79.66
21240;BME280;10778;48.962;9.018;2023-07-30T10:56:13;98932.44;;;19.57;78.71
21240;BME280;10778;48.962;9.018;2023-07-30T10:58:39;98930.53;;;19.51;78.93
21240;BME280;10778;48.962;9.018;2023-07-30T11:01:06;98945.34;;;19.53;81.49
21240;BME280;10778;48.962;9.018;2023-07-30T11:03:33;98938.75;;;19.49;81.78
21240;BME280;10778;48.962;9.018;2023-07-30T11:06:01;98947.13;;;19.32;81.83
21240;BME280;10778;48.962;9.018;2023-07-30T11:08:34;98928.38;;;19.19;81.08
21240;BME280;10778;48.962;9.018;2023-07-30T11:11:00;98939.84;;;19.13;83.11
21240;BME280;10778;48.962;9.018;2023-07-30T11:13:26;98937.97;;;19.07;83.22
21240;BME280;10778;48.962;9.018;2023-07-30T11:15:52;98941.38;;;19.36;83.12
21240;BME280;10778;48.962;9.018;2023-07-30T11:18:18;98941.47;;;19.56;81.70
21240;BME280;10778;48.962;9.018;2023-07-30T11:20:44;98945.19;;;19.75;82.21
21240;BME280;10778;48.962;9.018;2023-07-30T11:23:21;98941.97;;;19.93;80.95
21240;BME280;10778;48.962;9.018;2023-07-30T11:25:50;98938.69;;;19.98;81.49
21240;BME280;10778;48.962;9.018;2023-07-30T11:28:37;98946.72;;;20.31;79.80
21240;BME280;10778;48.962;9.018;2023-07-30T11:31:14;98947.75;;;20.37;79.29
21240;BME280;10778;48.962;9.018;2023-07-30T11:33:43;98942.00;;;20.81;78.40
21240;BME280;10778;48.962;9.018;2023-07-30T11:36:11;98935.16;;;20.78;77.71
21240;BME280;10778;48.962;9.018;2023-07-30T11:38:38;98938.22;;;20.95;76.56
21240;BME280;10778;48.962;9.018;2023-07-30T11:41:05;98927.47;;;21.68;77.31
21240;BME280;10778;48.962;9.018;2023-07-30T11:43:31;98923.47;;;21.84;75.01
21240;BME280;10778;48.962;9.018;2023-07-30T11:46:14;98927.38;;;21.81;74.59
21240;BME280;10778;48.962;9.018;2023-07-30T11:48:42;98924.31;;;22.35;73.66
21240;BME280;10778;48.962;9.018;2023-07-30T11:51:25;98932.97;;;22.37;74.43
21240;BME280;10778;48.962;9.018;2023-07-30T11:53:54;98932.00;;;21.67;74.17
21240;BME280;10778;48.962;9.018;2023-07-30T11:56:28;98941.84;;;21.28;74.79
21240;BME280;10778;48.962;9.018;2023-07-30T11:59:04;98951.84;;;20.80;76.33
21240;BME280;10778;48.962;9.018;2023-07-30T12:01:33;98948.59;;;20.38;75.83
21240;BME280;10778;48.962;9.018;2023-07-30T12:04:04;98960.91;;;20.18;77.68
21240;BME280;10778;48.962;9.018;2023-07-30T12:06:45;98969.88;;;19.90;75.46
21240;BME280;10778;48.962;9.018;2023-07-30T12:09:16;98970.75;;;20.11;74.99
21240;BME280;10778;48.962;9.018;2023-07-30T12:11:48;98955.94;;;20.76;71.82
21240;BME280;10778;48.962;9.018;2023-07-30T12:14:15;98963.13;;;21.02;71.74
21240;BME280;10778;48.962;9.018;2023-07-30T12:16:41;98962.69;;;21.06;70.43
21240;BME280;10778;48.962;9.018;2023-07-30T12:19:06;98961.06;;;20.78;70.80
21240;BME280;10778;48.962;9.018;2023-07-30T12:21:32;98954.13;;;20.63;70.83
21240;BME280;10778;48.962;9.018;2023-07-30T12:23:58;98967.69;;;20.75;70.45
21240;BME280;10778;48.962;9.018;2023-07-30T12:26:24;98964.19;;;20.68;71.79
21240;BME280;10778;48.962;9.018;2023-07-30T12:28:50;98960.50;;;20.42;69.63
21240;BME280;10778;48.962;9.018;2023-07-30T12:31:16;98966.03;;;20.33;69.90
21240;BME280;10778;48.962;9.018;2023-07-30T12:33:43;98969.56;;;20.34;69.57
21240;BME280;10778;48.962;9.018;2023-07-30T12:36:09;98969.75;;;20.32;68.41
21240;BME280;10778;48.962;9.018;2023-07-30T12:38:35;98957.59;;;20.70;66.40
21240;BME280;10778;48.962;9.018;2023-07-30T12:41:01;98952.53;;;21.35;66.61
21240;BME280;10778;48.962;9.018;2023-07-30T12:43:26;98951.47;;;21.81;65.38
21240;BME280;10778;48.962;9.018;2023-07-30T12:45:52;98946.78;;;23.04;63.92
21240;BME280;10778;48.962;9.018;2023-07-30T12:48:18;98944.47;;;22.38;64.50
21240;BME280;10778;48.962;9.018;2023-07-30T12:50:45;98952.44;;;21.94;65.42
21240;BME280;10778;48.962;9.018;2023-07-30T12:53:11;98945.38;;;22.31;63.36